Time;durP1;ratioP1;P1;durP2;ratioP2;P2;SDS_P1;SDS_P2;PMS_P1;PMS_P2;Temp;Humidity;BMP_temperature;BMP_pressure;BME280_temperature;BME280_humidity;BME280_pressure;Samples;Min_cycle;Max_cycle;Signal;HPM_P1;HPM_P2
2022/08/24 00:00:58;;;;;;;16.90;9.05;;;;;;;;;;4975959;28;20075;-69
2022/08/24 00:03:24;;;;;;;14.73;8.10;;;;;;;;;;4973233;28;20412;-69
2022/08/24 00:05:50;;;;;;;15.77;8.63;;;;;;;;;;4972957;28;20083;-69
2022/08/24 00:08:16;;;;;;;16.65;9.43;;;;;;;;;;4973571;28;20720;-69
2022/08/24 00:10:41;;;;;;;14.93;8.07;;;;;;;;;;4977441;28;20731;-70
2022/08/24 00:13:08;;;;;;;12.50;7.53;;;;;;;;;;4972902;28;20038;-68
2022/08/24 00:15:33;;;;;;;14.65;8.02;;;;;;;;;;4975214;28;20702;-69
2022/08/24 00:17:58;;;;;;;11.38;7.22;;;;;;;;;;4958670;28;20164;-69
2022/08/24 00:20:25;;;;;;;15.48;7.40;;;;;;;;;;4958575;28;20048;-69
2022/08/24 00:22:50;;;;;;;12.90;7.13;;;;;;;;;;4978066;28;20049;-69
2022/08/24 00:25:18;;;;;;;10.73;6.68;;;;;;;;;;4965049;28;20197;-69
2022/08/24 00:27:44;;;;;;;12.52;6.38;;;;;;;;;;4976435;28;20466;-70
2022/08/24 00:30:11;;;;;;;14.57;6.38;;;;;;;;;;4979500;28;20084;-68
2022/08/24 00:32:36;;;;;;;11.10;6.95;;;;;;;;;;4978293;28;20112;-67
2022/08/24 00:35:04;;;;;;;15.18;6.28;;;;;;;;;;4977841;28;20035;-67
2022/08/24 00:37:30;;;;;;;11.57;6.63;;;;;;;;;;4965039;28;20199;-67
2022/08/24 00:39:56;;;;;;;12.30;6.32;;;;;;;;;;4957804;28;20053;-67
2022/08/24 00:42:23;;;;;;;12.68;6.78;;;;;;;;;;4962110;28;20119;-68
2022/08/24 00:44:49;;;;;;;14.35;7.10;;;;;;;;;;4976766;28;20080;-67
2022/08/24 00:47:22;;;;;;;15.10;8.15;;;;;;;;;;4976879;28;20044;-67
2022/08/24 00:49:59;;;;;;;13.05;7.07;;;;;;;;;;4976804;28;20310;-67
2022/08/24 00:52:34;;;;;;;14.05;7.43;;;;;;;;;;4978864;28;20410;-68
2022/08/24 00:55:04;;;;;;;21.30;11.75;;;;;;;;;;4977962;28;20240;-68
2022/08/24 00:57:32;;;;;;;22.92;14.20;;;;;;;;;;4963697;28;20033;-66
2022/08/24 01:00:00;;;;;;;20.85;12.50;;;;;;;;;;4976338;28;20338;-67
2022/08/24 01:02:29;;;;;;;18.85;10.13;;;;;;;;;;4975469;28;20045;-67
2022/08/24 01:04:56;;;;;;;21.42;10.70;;;;;;;;;;4976955;28;20069;-67
2022/08/24 01:07:23;;;;;;;18.80;10.57;;;;;;;;;;4977413;28;20037;-67
2022/08/24 01:09:50;;;;;;;18.40;10.52;;;;;;;;;;4976543;28;20041;-67
2022/08/24 01:12:16;;;;;;;18.73;10.98;;;;;;;;;;4977039;28;20059;-68
2022/08/24 01:14:42;;;;;;;19.23;9.68;;;;;;;;;;4965242;28;20033;-68
2022/08/24 01:19:53;;;;;;;15.77;8.15;;;;;;;;;;4975860;28;20045;-68
2022/08/24 01:22:24;;;;;;;14.63;7.07;;;;;;;;;;4976698;28;20474;-67
2022/08/24 01:24:50;;;;;;;16.27;11.05;;;;;;;;;;4974904;28;20199;-68
2022/08/24 01:27:16;;;;;;;13.75;10.05;;;;;;;;;;4978315;28;20063;-68
2022/08/24 01:29:42;;;;;;;16.60;10.75;;;;;;;;;;4977200;28;20544;-68
2022/08/24 01:32:08;;;;;;;26.77;12.52;;;;;;;;;;4974900;28;20586;-68
2022/08/24 01:34:34;;;;;;;36.13;15.32;;;;;;;;;;4975191;28;20159;-68
2022/08/24 01:37:00;;;;;;;33.42;14.80;;;;;;;;;;4976016;28;20614;-68
2022/08/24 01:39:28;;;;;;;38.33;16.52;;;;;;;;;;4977255;28;20033;-68
2022/08/24 01:41:55;;;;;;;42.17;16.35;;;;;;;;;;4974581;28;20049;-68
2022/08/24 01:44:21;;;;;;;29.52;14.38;;;;;;;;;;4976458;28;20426;-68
2022/08/24 01:46:47;;;;;;;38.35;14.80;;;;;;;;;;4974896;28;20536;-68
2022/08/24 01:49:13;;;;;;;39.97;16.20;;;;;;;;;;4976894;28;20061;-69
2022/08/24 01:51:39;;;;;;;38.80;15.52;;;;;;;;;;4974966;28;20056;-69
2022/08/24 01:54:04;;;;;;;30.90;12.85;;;;;;;;;;4976114;28;21067;-69
2022/08/24 01:56:30;;;;;;;24.50;11.75;;;;;;;;;;4978143;28;20795;-69
2022/08/24 01:58:56;;;;;;;19.85;10.00;;;;;;;;;;4976958;28;20124;-70
2022/08/24 02:01:22;;;;;;;36.15;14.50;;;;;;;;;;4976812;28;20192;-69
2022/08/24 02:03:47;;;;;;;25.75;11.07;;;;;;;;;;4977701;28;20037;-69
2022/08/24 02:06:15;;;;;;;18.10;10.05;;;;;;;;;;4976318;28;20303;-69
2022/08/24 02:08:40;;;;;;;15.15;8.90;;;;;;;;;;4979507;28;20300;-69
2022/08/24 02:11:07;;;;;;;20.50;11.07;;;;;;;;;;4977130;28;20711;-69
2022/08/24 02:13:34;;;;;;;22.40;11.25;;;;;;;;;;4961545;28;20529;-69
2022/08/24 02:15:59;;;;;;;18.67;10.85;;;;;;;;;;4974288;28;20125;-69
2022/08/24 02:18:25;;;;;;;21.45;10.70;;;;;;;;;;4976485;28;20033;-68
2022/08/24 02:20:52;;;;;;;20.55;11.32;;;;;;;;;;4975368;28;20030;-69
2022/08/24 02:23:17;;;;;;;23.05;12.13;;;;;;;;;;4977439;28;20364;-68
2022/08/24 02:25:43;;;;;;;19.70;10.52;;;;;;;;;;4974505;28;20113;-68
2022/08/24 02:28:08;;;;;;;13.75;10.35;;;;;;;;;;4977746;28;20026;-69
2022/08/24 02:30:34;;;;;;;17.98;9.98;;;;;;;;;;4977462;28;20084;-69
2022/08/24 02:32:59;;;;;;;13.30;10.50;;;;;;;;;;4977155;28;20562;-69
2022/08/24 02:35:25;;;;;;;21.88;18.58;;;;;;;;;;4974047;28;20144;-69
2022/08/24 02:37:51;;;;;;;17.80;13.07;;;;;;;;;;4977356;28;20458;-69
2022/08/24 02:40:16;;;;;;;17.38;12.75;;;;;;;;;;4976389;28;20542;-69
2022/08/24 02:42:42;;;;;;;15.32;12.73;;;;;;;;;;4977015;28;20064;-69
2022/08/24 02:45:08;;;;;;;14.15;12.70;;;;;;;;;;4977887;28;20499;-69
2022/08/24 02:47:33;;;;;;;18.55;16.63;;;;;;;;;;4979554;28;20096;-69
2022/08/24 02:49:59;;;;;;;22.15;19.90;;;;;;;;;;4985912;28;20221;-70
2022/08/24 02:52:25;;;;;;;26.55;23.73;;;;;;;;;;4986834;28;20042;-69
2022/08/24 02:54:51;;;;;;;32.85;29.60;;;;;;;;;;4954546;28;20178;-69
2022/08/24 02:57:17;;;;;;;33.47;30.08;;;;;;;;;;4974142;28;20828;-69
2022/08/24 02:59:42;;;;;;;38.30;34.40;;;;;;;;;;4975048;28;20037;-69
2022/08/24 03:02:08;;;;;;;37.67;33.78;;;;;;;;;;4957313;28;20112;-69
2022/08/24 03:04:33;;;;;;;29.40;25.08;;;;;;;;;;4975537;28;20544;-69
2022/08/24 03:06:59;;;;;;;18.55;11.68;;;;;;;;;;4975546;28;20041;-69
2022/08/24 03:09:24;;;;;;;18.20;10.05;;;;;;;;;;4975594;28;20037;-69
2022/08/24 03:11:50;;;;;;;20.85;10.15;;;;;;;;;;4974720;28;20150;-67
2022/08/24 03:14:17;;;;;;;25.10;11.23;;;;;;;;;;4976154;28;20138;-67
2022/08/24 03:16:43;;;;;;;24.05;11.68;;;;;;;;;;4962499;28;20049;-68
2022/08/24 03:19:09;;;;;;;24.50;10.82;;;;;;;;;;4980955;28;20377;-68
2022/08/24 03:21:34;;;;;;;18.40;9.90;;;;;;;;;;4983792;28;20619;-68
2022/08/24 03:24:00;;;;;;;18.77;11.30;;;;;;;;;;4969812;28;20108;-67
2022/08/24 03:26:25;;;;;;;18.55;10.98;;;;;;;;;;4974753;28;20155;-67
2022/08/24 03:28:51;;;;;;;20.77;12.63;;;;;;;;;;4984376;28;20161;-68
2022/08/24 03:31:17;;;;;;;20.73;10.88;;;;;;;;;;4987728;28;20113;-69
2022/08/24 03:33:42;;;;;;;19.25;13.13;;;;;;;;;;4979835;28;20040;-69
2022/08/24 03:36:08;;;;;;;22.27;15.65;;;;;;;;;;4979996;28;20041;-69
2022/08/24 03:38:34;;;;;;;28.88;19.17;;;;;;;;;;4983188;28;20268;-68
2022/08/24 03:41:00;;;;;;;35.28;27.20;;;;;;;;;;4959865;28;20199;-69
2022/08/24 03:46:10;;;;;;;28.70;25.55;;;;;;;;;;4980902;28;20190;-69
2022/08/24 03:48:37;;;;;;;21.55;17.98;;;;;;;;;;4987572;28;20075;-69
2022/08/24 03:51:03;;;;;;;24.55;18.05;;;;;;;;;;4988585;28;20037;-68
2022/08/24 03:53:29;;;;;;;30.83;25.50;;;;;;;;;;4987615;28;20283;-68
2022/08/24 03:55:54;;;;;;;33.67;30.08;;;;;;;;;;4986059;28;20038;-69
2022/08/24 03:58:20;;;;;;;31.33;27.85;;;;;;;;;;4972128;28;20041;-69
2022/08/24 04:00:45;;;;;;;33.15;29.58;;;;;;;;;;4988839;28;20499;-69
2022/08/24 04:03:11;;;;;;;38.70;34.55;;;;;;;;;;4983914;28;20065;-69
2022/08/24 04:05:37;;;;;;;40.08;36.17;;;;;;;;;;4963910;28;20114;-69
2022/08/24 04:08:03;;;;;;;34.38;30.90;;;;;;;;;;4981141;28;20033;-69
2022/08/24 04:10:28;;;;;;;27.58;24.60;;;;;;;;;;4982907;28;20159;-68
2022/08/24 04:12:53;;;;;;;23.13;20.83;;;;;;;;;;4981641;28;20433;-69
2022/08/24 04:15:19;;;;;;;17.52;15.80;;;;;;;;;;4983997;28;20115;-70
2022/08/24 04:17:44;;;;;;;15.20;13.60;;;;;;;;;;4971761;28;20145;-69
2022/08/24 04:20:10;;;;;;;14.43;12.65;;;;;;;;;;4981560;28;20097;-70
2022/08/24 04:22:35;;;;;;;15.40;13.27;;;;;;;;;;4959499;28;20822;-69
2022/08/24 04:25:01;;;;;;;14.23;11.85;;;;;;;;;;4983331;28;20056;-69
2022/08/24 04:27:27;;;;;;;15.23;13.55;;;;;;;;;;4956554;28;20959;-69
2022/08/24 04:29:52;;;;;;;15.77;11.70;;;;;;;;;;4974109;28;20033;-68
2022/08/24 04:32:18;;;;;;;13.35;11.57;;;;;;;;;;4974145;28;20262;-70
2022/08/24 04:34:43;;;;;;;18.15;15.43;;;;;;;;;;4972334;28;20145;-69
2022/08/24 04:37:10;;;;;;;34.75;29.00;;;;;;;;;;4976656;28;20041;-69
2022/08/24 04:39:36;;;;;;;31.30;28.05;;;;;;;;;;4976720;28;20041;-69
2022/08/24 04:42:02;;;;;;;21.38;19.13;;;;;;;;;;4964022;28;20481;-68
2022/08/24 04:44:28;;;;;;;28.55;25.08;;;;;;;;;;4956223;28;20072;-69
2022/08/24 04:46:54;;;;;;;31.92;28.48;;;;;;;;;;4960727;28;20040;-69
2022/08/24 04:49:19;;;;;;;32.35;28.38;;;;;;;;;;4973495;28;20825;-69
2022/08/24 04:51:45;;;;;;;32.50;28.98;;;;;;;;;;4974791;28;20289;-69
2022/08/24 04:54:10;;;;;;;34.08;30.48;;;;;;;;;;4957639;28;20541;-69
2022/08/24 04:56:35;;;;;;;30.83;27.55;;;;;;;;;;4972567;28;20038;-69
2022/08/24 04:59:01;;;;;;;34.08;30.25;;;;;;;;;;4974823;28;20041;-69
2022/08/24 05:01:28;;;;;;;34.40;27.33;;;;;;;;;;4970464;28;20049;-69
2022/08/24 05:03:54;;;;;;;27.30;21.20;;;;;;;;;;4952992;28;20219;-69
2022/08/24 05:06:21;;;;;;;25.75;17.27;;;;;;;;;;4974339;28;20498;-69
2022/08/24 05:08:47;;;;;;;27.30;14.93;;;;;;;;;;4976659;28;20285;-69
2022/08/24 05:11:13;;;;;;;17.88;12.10;;;;;;;;;;4978516;28;20611;-68
2022/08/24 05:13:38;;;;;;;19.77;12.65;;;;;;;;;;4975510;28;21848;-68
2022/08/24 05:16:05;;;;;;;23.73;13.45;;;;;;;;;;4978367;28;20554;-69
2022/08/24 05:18:32;;;;;;;22.90;13.07;;;;;;;;;;4977891;28;20083;-69
2022/08/24 05:20:58;;;;;;;21.08;12.68;;;;;;;;;;4977206;28;20037;-68
2022/08/24 05:23:23;;;;;;;24.45;14.13;;;;;;;;;;4959653;28;20096;-68
2022/08/24 05:25:49;;;;;;;20.73;13.23;;;;;;;;;;4978119;28;20541;-68
2022/08/24 05:28:14;;;;;;;19.42;14.48;;;;;;;;;;4976119;28;20034;-68
2022/08/24 05:30:40;;;;;;;18.52;14.82;;;;;;;;;;4979340;28;20037;-68
2022/08/24 05:33:06;;;;;;;17.38;13.80;;;;;;;;;;4977381;28;20026;-68
2022/08/24 05:35:35;;;;;;;21.00;15.35;;;;;;;;;;4957747;28;20053;-68
2022/08/24 05:38:01;;;;;;;21.88;15.10;;;;;;;;;;4964646;28;20155;-68
2022/08/24 05:40:26;;;;;;;25.30;16.00;;;;;;;;;;4980713;28;20324;-68
2022/08/24 05:42:51;;;;;;;20.85;14.52;;;;;;;;;;4979403;28;20277;-69
2022/08/24 05:45:17;;;;;;;21.35;15.48;;;;;;;;;;4962726;28;20029;-68
2022/08/24 05:47:42;;;;;;;16.27;14.05;;;;;;;;;;4964960;28;20037;-68
2022/08/24 05:50:07;;;;;;;20.17;13.52;;;;;;;;;;4970049;28;20041;-69
2022/08/24 05:52:34;;;;;;;24.63;14.93;;;;;;;;;;4980789;28;20041;-69
2022/08/24 05:55:00;;;;;;;28.45;15.68;;;;;;;;;;4961420;28;20202;-68
2022/08/24 05:57:29;;;;;;;22.90;14.25;;;;;;;;;;4980574;28;20036;-69
2022/08/24 05:59:55;;;;;;;24.88;13.75;;;;;;;;;;4975762;28;20033;-69
2022/08/24 06:02:20;;;;;;;26.25;12.60;;;;;;;;;;4977738;28;20517;-69
2022/08/24 06:04:45;;;;;;;22.92;13.80;;;;;;;;;;4979362;28;20214;-68
2022/08/24 06:07:11;;;;;;;23.60;14.02;;;;;;;;;;4980742;28;20137;-68
2022/08/24 06:09:38;;;;;;;20.23;13.88;;;;;;;;;;4978554;28;20505;-67
2022/08/24 06:12:03;;;;;;;15.05;12.07;;;;;;;;;;4977960;28;20045;-68
2022/08/24 06:14:29;;;;;;;19.13;12.88;;;;;;;;;;4927603;28;20295;-68
2022/08/24 06:16:54;;;;;;;18.88;12.77;;;;;;;;;;4969636;28;20133;-68
2022/08/24 06:19:20;;;;;;;15.02;11.55;;;;;;;;;;4963538;28;25194;-69
2022/08/24 06:21:47;;;;;;;16.02;11.63;;;;;;;;;;4977265;28;20045;-68
2022/08/24 06:24:14;;;;;;;17.85;11.70;;;;;;;;;;4978480;28;20765;-68
2022/08/24 06:29:24;;;;;;;24.63;13.90;;;;;;;;;;4959201;28;20041;-68
2022/08/24 06:31:49;;;;;;;27.13;14.82;;;;;;;;;;4976123;28;20030;-68
2022/08/24 06:34:16;;;;;;;18.65;11.35;;;;;;;;;;4975850;28;20037;-68
2022/08/24 06:36:42;;;;;;;24.67;12.02;;;;;;;;;;4978205;28;20038;-68
2022/08/24 06:39:07;;;;;;;22.63;13.77;;;;;;;;;;4975354;28;20139;-68
2022/08/24 06:41:33;;;;;;;26.63;13.90;;;;;;;;;;4977443;28;20045;-68
2022/08/24 06:43:59;;;;;;;24.67;12.52;;;;;;;;;;4980840;28;20056;-69
2022/08/24 06:46:25;;;;;;;26.80;11.93;;;;;;;;;;4981518;28;20091;-70
2022/08/24 06:48:51;;;;;;;30.55;12.43;;;;;;;;;;4981504;28;20057;-69
2022/08/24 06:51:17;;;;;;;18.90;9.57;;;;;;;;;;4982331;28;20357;-69
2022/08/24 06:53:44;;;;;;;14.23;7.10;;;;;;;;;;4984449;28;20036;-69
2022/08/24 06:56:09;;;;;;;10.57;6.78;;;;;;;;;;4982697;28;20368;-68
2022/08/24 06:58:35;;;;;;;11.32;7.38;;;;;;;;;;4984366;28;20036;-69
2022/08/24 07:01:14;;;;;;;14.95;8.13;;;;;;;;;;4983661;28;20045;-68
2022/08/24 07:03:40;;;;;;;14.70;7.65;;;;;;;;;;4983296;28;20089;-69
2022/08/24 07:06:06;;;;;;;11.70;7.35;;;;;;;;;;4985017;28;20085;-68
2022/08/24 07:08:32;;;;;;;15.48;7.20;;;;;;;;;;4979214;28;20546;-69
2022/08/24 07:10:57;;;;;;;10.82;7.18;;;;;;;;;;4980134;28;20509;-68
2022/08/24 07:13:24;;;;;;;14.15;6.25;;;;;;;;;;4980940;28;20426;-69
2022/08/24 07:15:50;;;;;;;11.02;5.80;;;;;;;;;;4966992;28;20114;-70
2022/08/24 07:18:16;;;;;;;7.65;4.65;;;;;;;;;;4979290;28;20044;-69
2022/08/24 07:20:42;;;;;;;9.73;4.70;;;;;;;;;;4981175;28;20065;-69
2022/08/24 07:23:09;;;;;;;8.60;6.07;;;;;;;;;;4978302;28;20630;-72
2022/08/24 07:25:34;;;;;;;8.65;7.32;;;;;;;;;;4952070;28;20033;-71
2022/08/24 07:28:00;;;;;;;7.85;7.00;;;;;;;;;;4979058;28;20339;-69
2022/08/24 07:30:26;;;;;;;7.70;4.35;;;;;;;;;;4978832;28;20342;-71
2022/08/24 07:32:53;;;;;;;6.93;4.68;;;;;;;;;;4976092;28;20115;-70
2022/08/24 07:35:18;;;;;;;7.32;5.30;;;;;;;;;;4978075;28;20034;-71
2022/08/24 07:37:43;;;;;;;10.73;7.90;;;;;;;;;;4977923;28;20305;-71
2022/08/24 07:40:09;;;;;;;11.60;8.35;;;;;;;;;;4977711;28;20034;-72
2022/08/24 07:42:34;;;;;;;12.88;7.03;;;;;;;;;;4965294;28;20160;-70
2022/08/24 07:45:00;;;;;;;10.68;6.50;;;;;;;;;;4979645;28;20359;-70
2022/08/24 07:47:26;;;;;;;7.90;6.43;;;;;;;;;;4982356;28;20683;-70
2022/08/24 07:49:52;;;;;;;6.63;5.13;;;;;;;;;;4947706;28;20041;-70
2022/08/24 07:52:17;;;;;;;12.18;8.68;;;;;;;;;;4981138;28;20049;-69
2022/08/24 07:54:43;;;;;;;8.57;6.40;;;;;;;;;;4964491;28;20323;-70
2022/08/24 07:57:08;;;;;;;8.32;5.50;;;;;;;;;;4983120;28;20129;-70
2022/08/24 07:59:34;;;;;;;8.65;6.88;;;;;;;;;;4955384;28;20037;-70
2022/08/24 08:02:00;;;;;;;9.40;5.38;;;;;;;;;;4979307;28;20548;-69
2022/08/24 08:04:25;;;;;;;7.03;4.70;;;;;;;;;;4981151;28;20164;-70
2022/08/24 08:06:51;;;;;;;11.50;5.22;;;;;;;;;;4983848;28;20359;-72
2022/08/24 08:09:17;;;;;;;8.43;4.80;;;;;;;;;;4986343;28;20038;-70
2022/08/24 08:11:43;;;;;;;8.60;4.78;;;;;;;;;;4967026;28;20332;-71
2022/08/24 08:14:08;;;;;;;7.50;4.47;;;;;;;;;;4960961;28;20084;-71
2022/08/24 08:16:34;;;;;;;6.60;4.47;;;;;;;;;;4977597;28;20096;-71
2022/08/24 08:19:00;;;;;;;8.45;4.55;;;;;;;;;;4979708;28;20243;-71
2022/08/24 08:24:16;;;;;;;11.10;4.43;;;;;;;;;;4982827;28;20359;-71
2022/08/24 08:26:45;;;;;;;6.65;4.28;;;;;;;;;;4981888;28;20030;-72
2022/08/24 08:29:12;;;;;;;7.55;3.97;;;;;;;;;;4978768;28;20145;-71
2022/08/24 08:31:39;;;;;;;7.00;4.00;;;;;;;;;;4980362;28;20041;-70
2022/08/24 08:34:05;;;;;;;6.60;3.50;;;;;;;;;;4979804;28;20590;-71
2022/08/24 08:36:30;;;;;;;6.43;3.60;;;;;;;;;;4981793;28;20281;-70
2022/08/24 08:38:56;;;;;;;8.25;4.00;;;;;;;;;;4981531;28;20891;-70
2022/08/24 08:41:41;;;;;;;5.22;4.00;;;;;;;;;;4983253;28;20041;-70
2022/08/24 08:44:27;;;;;;;7.00;3.35;;;;;;;;;;4985538;28;20132;-70
2022/08/24 08:47:04;;;;;;;6.60;3.50;;;;;;;;;;4966963;28;20476;-69
2022/08/24 08:49:48;;;;;;;6.47;3.97;;;;;;;;;;4987128;28;20072;-69
2022/08/24 08:52:32;;;;;;;6.20;4.32;;;;;;;;;;4986860;28;20034;-70
2022/08/24 08:55:22;;;;;;;5.75;3.80;;;;;;;;;;4952082;28;20342;-69
2022/08/24 08:57:50;;;;;;;7.13;4.13;;;;;;;;;;4987033;28;20045;-69
2022/08/24 09:00:18;;;;;;;6.03;4.20;;;;;;;;;;4985321;28;20095;-68
2022/08/24 09:02:43;;;;;;;5.47;3.78;;;;;;;;;;4986169;28;22216;-71
2022/08/24 09:05:15;;;;;;;6.25;3.33;;;;;;;;;;4985740;28;20224;-70
2022/08/24 09:07:45;;;;;;;6.38;3.40;;;;;;;;;;4988457;28;20038;-70
2022/08/24 09:10:24;;;;;;;5.05;3.22;;;;;;;;;;4987818;28;20029;-71
2022/08/24 09:12:53;;;;;;;6.85;3.28;;;;;;;;;;4974245;28;20592;-71
2022/08/24 09:15:22;;;;;;;7.40;3.53;;;;;;;;;;4987338;28;20310;-71
2022/08/24 09:18:00;;;;;;;4.47;2.90;;;;;;;;;;4985757;28;20226;-71
2022/08/24 09:20:44;;;;;;;5.63;3.00;;;;;;;;;;4985259;28;20688;-69
2022/08/24 09:23:19;;;;;;;6.15;3.25;;;;;;;;;;4983993;28;20045;-71
2022/08/24 09:25:59;;;;;;;6.95;3.28;;;;;;;;;;4972189;28;20069;-71
2022/08/24 09:28:43;;;;;;;4.97;3.40;;;;;;;;;;4989196;28;20240;-69
2022/08/24 09:31:24;;;;;;;7.15;3.47;;;;;;;;;;4989028;28;20148;-70
2022/08/24 09:33:49;;;;;;;5.07;3.50;;;;;;;;;;4989304;28;20033;-70
2022/08/24 09:36:23;;;;;;;6.13;3.70;;;;;;;;;;4987516;28;20034;-70
2022/08/24 09:39:17;;;;;;;6.55;3.88;;;;;;;;;;4967250;28;20033;-70
2022/08/24 09:42:02;;;;;;;9.27;4.18;;;;;;;;;;4936038;28;21996;-70
2022/08/24 09:44:28;;;;;;;6.95;3.97;;;;;;;;;;4986087;28;20095;-71
2022/08/24 09:47:02;;;;;;;10.18;4.40;;;;;;;;;;4986064;28;20518;-69
2022/08/24 09:49:46;;;;;;;8.20;4.00;;;;;;;;;;4983358;28;20414;-69
2022/08/24 09:52:15;;;;;;;7.00;4.43;;;;;;;;;;4986010;28;20176;-70
2022/08/24 09:54:53;;;;;;;8.02;3.90;;;;;;;;;;4985498;28;20048;-70
2022/08/24 09:57:30;;;;;;;5.70;4.32;;;;;;;;;;4968571;28;20477;-69
2022/08/24 10:00:11;;;;;;;10.50;4.60;;;;;;;;;;4980812;28;20186;-70
2022/08/24 10:02:54;;;;;;;8.68;4.85;;;;;;;;;;4984388;28;20673;-69
2022/08/24 10:05:19;;;;;;;5.55;3.80;;;;;;;;;;4965297;28;20907;-70
2022/08/24 10:07:54;;;;;;;5.75;3.25;;;;;;;;;;4984885;28;20041;-71
2022/08/24 10:10:19;;;;;;;4.88;2.60;;;;;;;;;;4984969;28;20044;-69
2022/08/24 10:12:49;;;;;;;6.03;3.10;;;;;;;;;;4983203;28;20038;-70
2022/08/24 10:15:21;;;;;;;5.15;2.72;;;;;;;;;;4985258;28;20037;-70
2022/08/24 10:18:02;;;;;;;5.78;2.92;;;;;;;;;;4978816;28;20044;-70
2022/08/24 10:20:28;;;;;;;;;;;;;;;;;;4978597;28;20192;-70
2022/08/24 10:23:08;;;;;;;4.63;2.50;;;;;;;;;;4979051;28;20000;-70
2022/08/24 10:25:53;;;;;;;4.82;2.28;;;;;;;;;;4979746;28;20618;-70
2022/08/24 10:28:18;;;;;;;6.38;3.33;;;;;;;;;;4968606;28;20116;-70
2022/08/24 10:30:49;;;;;;;3.28;2.35;;;;;;;;;;4982949;28;20095;-69
2022/08/24 10:33:29;;;;;;;5.70;3.60;;;;;;;;;;4981137;28;20426;-71
2022/08/24 10:35:58;;;;;;;5.70;3.20;;;;;;;;;;4985045;28;20038;-70
2022/08/24 10:41:33;;;;;;;5.53;3.40;;;;;;;;;;4979779;28;20045;-71
2022/08/24 10:44:01;;;;;;;6.95;2.90;;;;;;;;;;4964616;28;20061;-70
2022/08/24 10:46:35;;;;;;;5.82;2.90;;;;;;;;;;4979074;28;20125;-69
2022/08/24 10:49:19;;;;;;;5.80;3.30;;;;;;;;;;4979186;28;20108;-69
2022/08/24 10:52:03;;;;;;;7.15;3.67;;;;;;;;;;4982068;28;20041;-69
2022/08/24 10:54:31;;;;;;;5.57;3.58;;;;;;;;;;4981410;28;20524;-71
2022/08/24 10:56:57;;;;;;;6.25;3.55;;;;;;;;;;4981016;28;20034;-69
2022/08/24 10:59:25;;;;;;;5.25;3.80;;;;;;;;;;4978122;28;20041;-70
2022/08/24 11:02:00;;;;;;;9.43;4.72;;;;;;;;;;4976814;28;20231;-70
2022/08/24 11:04:28;;;;;;;6.28;5.13;;;;;;;;;;4982425;28;20116;-69
2022/08/24 11:07:06;;;;;;;9.15;5.10;;;;;;;;;;4984653;28;20038;-68
2022/08/24 11:09:43;;;;;;;8.23;5.18;;;;;;;;;;4984929;28;20385;-69
2022/08/24 11:12:27;;;;;;;8.68;5.68;;;;;;;;;;4979130;28;20129;-70
2022/08/24 11:14:54;;;;;;;8.88;5.50;;;;;;;;;;4979738;28;20041;-70
2022/08/24 11:17:20;;;;;;;13.15;6.60;;;;;;;;;;4976743;28;20029;-69
2022/08/24 11:19:46;;;;;;;10.13;6.35;;;;;;;;;;4976283;28;20061;-70
2022/08/24 11:22:20;;;;;;;10.35;5.70;;;;;;;;;;4978649;28;20050;-70
2022/08/24 11:24:47;;;;;;;10.38;6.05;;;;;;;;;;4966293;28;20046;-70
2022/08/24 11:27:15;;;;;;;11.52;6.80;;;;;;;;;;4966306;28;20045;-69
2022/08/24 11:29:53;;;;;;;11.40;6.28;;;;;;;;;;4981550;28;20042;-69
2022/08/24 11:32:28;;;;;;;7.85;5.10;;;;;;;;;;4977696;28;20889;-69
2022/08/24 11:34:53;;;;;;;7.50;6.30;;;;;;;;;;4979402;28;20044;-71
2022/08/24 11:37:22;;;;;;;8.15;6.07;;;;;;;;;;4981065;28;20081;-69
2022/08/24 11:39:48;;;;;;;9.82;6.18;;;;;;;;;;4978282;28;21893;-71
2022/08/24 11:42:19;;;;;;;9.30;6.82;;;;;;;;;;4979062;28;20069;-71
2022/08/24 11:44:53;;;;;;;8.65;6.20;;;;;;;;;;4979363;28;20052;-71
2022/08/24 11:47:25;;;;;;;10.05;6.72;;;;;;;;;;4964114;28;20064;-71
2022/08/24 11:49:54;;;;;;;11.25;6.70;;;;;;;;;;4979269;28;20151;-71
2022/08/24 11:52:22;;;;;;;9.13;6.68;;;;;;;;;;4976888;28;20050;-71
2022/08/24 11:54:54;;;;;;;8.95;6.28;;;;;;;;;;4973540;28;20226;-69
2022/08/24 11:57:28;;;;;;;7.32;5.30;;;;;;;;;;4974281;28;20078;-71
2022/08/24 11:59:53;;;;;;;9.40;6.03;;;;;;;;;;4974716;28;20033;-70
2022/08/24 12:02:41;;;;;;;7.45;4.50;;;;;;;;;;4975248;28;20045;-70
2022/08/24 12:05:25;;;;;;;7.47;4.55;;;;;;;;;;4952792;28;20046;-70
2022/08/24 12:08:20;;;;;;;7.43;4.25;;;;;;;;;;4974511;28;20807;-70
2022/08/24 12:10:50;;;;;;;5.50;3.35;;;;;;;;;;4975659;28;20049;-71
2022/08/24 12:13:30;;;;;;;8.85;4.30;;;;;;;;;;4975056;28;20037;-72
2022/08/24 12:16:11;;;;;;;5.85;3.72;;;;;;;;;;4968390;28;20044;-71
2022/08/24 12:18:54;;;;;;;5.88;3.90;;;;;;;;;;4977038;28;20044;-71
2022/08/24 12:21:21;;;;;;;5.90;3.42;;;;;;;;;;4965123;28;20652;-71
2022/08/24 12:23:58;;;;;;;7.03;4.07;;;;;;;;;;4959796;28;20116;-71
2022/08/24 12:26:29;;;;;;;6.00;3.42;;;;;;;;;;4964258;28;20399;-72
2022/08/24 12:29:00;;;;;;;7.15;3.47;;;;;;;;;;4958016;28;20113;-71
2022/08/24 12:31:31;;;;;;;6.28;3.83;;;;;;;;;;4960792;28;20030;-71
2022/08/24 12:33:59;;;;;;;5.22;2.85;;;;;;;;;;4978148;28;20773;-71
2022/08/24 12:36:30;;;;;;;5.70;3.45;;;;;;;;;;4977142;28;20983;-71
2022/08/24 12:39:05;;;;;;;5.80;3.20;;;;;;;;;;4977818;28;20189;-71
2022/08/24 12:41:37;;;;;;;7.55;3.65;;;;;;;;;;4977540;28;20100;-72
2022/08/24 12:44:10;;;;;;;7.38;3.60;;;;;;;;;;4978798;28;20833;-71
2022/08/24 12:46:36;;;;;;;8.13;3.78;;;;;;;;;;4977005;28;20037;-71
2022/08/24 12:49:05;;;;;;;7.82;4.03;;;;;;;;;;4975852;28;20478;-71
2022/08/24 12:51:33;;;;;;;6.80;4.82;;;;;;;;;;4974449;28;20073;-72
2022/08/24 12:54:11;;;;;;;8.68;5.40;;;;;;;;;;4977147;28;20183;-71
2022/08/24 12:56:37;;;;;;;9.43;5.20;;;;;;;;;;4979429;28;20064;-71
2022/08/24 12:59:06;;;;;;;6.55;4.13;;;;;;;;;;4977923;28;20029;-71
2022/08/24 13:01:34;;;;;;;5.65;4.00;;;;;;;;;;4961441;28;20056;-72
2022/08/24 13:04:08;;;;;;;5.43;3.20;;;;;;;;;;4976261;28;20026;-71
2022/08/24 13:07:03;;;;;;;5.90;3.30;;;;;;;;;;4978456;28;20716;-71
2022/08/24 13:09:37;;;;;;;4.30;2.75;;;;;;;;;;4975715;28;20370;-72
2022/08/24 13:12:21;;;;;;;5.57;3.10;;;;;;;;;;4975747;28;20483;-70
2022/08/24 13:14:51;;;;;;;4.63;2.30;;;;;;;;;;4975904;28;20121;-71
2022/08/24 13:17:19;;;;;;;5.22;2.10;;;;;;;;;;4957738;28;20135;-72
2022/08/24 13:20:05;;;;;;;5.30;2.38;;;;;;;;;;4958893;28;20655;-70
2022/08/24 13:22:38;;;;;;;6.35;2.90;;;;;;;;;;4976932;28;20067;-71
2022/08/24 13:25:32;;;;;;;5.32;2.75;;;;;;;;;;4978759;28;20377;-71
2022/08/24 13:28:06;;;;;;;5.70;2.80;;;;;;;;;;4924740;28;20041;-70
2022/08/24 13:30:34;;;;;;;4.10;3.33;;;;;;;;;;4959539;28;22174;-70
2022/08/24 13:33:09;;;;;;;7.40;3.67;;;;;;;;;;4975927;28;20366;-70
2022/08/24 13:35:34;;;;;;;6.25;4.22;;;;;;;;;;4976566;28;20702;-70
2022/08/24 13:38:21;;;;;;;5.75;4.05;;;;;;;;;;4976696;28;20456;-70
2022/08/24 13:40:47;;;;;;;6.82;5.28;;;;;;;;;;4975096;28;20038;-70
2022/08/24 13:43:22;;;;;;;9.07;6.03;;;;;;;;;;4976857;28;20052;-70
2022/08/24 13:45:54;;;;;;;7.95;6.80;;;;;;;;;;4975529;28;20041;-71
2022/08/24 13:48:37;;;;;;;8.85;6.40;;;;;;;;;;4962344;28;20037;-71
2022/08/24 13:51:21;;;;;;;10.00;6.88;;;;;;;;;;4975871;28;20037;-70
2022/08/24 13:53:49;;;;;;;8.20;7.38;;;;;;;;;;4977400;28;20562;-70
2022/08/24 13:56:21;;;;;;;8.90;7.28;;;;;;;;;;4974948;28;20527;-73
2022/08/24 13:58:49;;;;;;;9.35;7.03;;;;;;;;;;4973764;28;20048;-70
2022/08/24 14:01:33;;;;;;;8.25;7.45;;;;;;;;;;4976380;28;20048;-71
2022/08/24 14:04:01;;;;;;;10.70;7.80;;;;;;;;;;4958612;28;20512;-70
2022/08/24 14:06:30;;;;;;;10.30;7.95;;;;;;;;;;4975110;28;20041;-69
2022/08/24 14:09:19;;;;;;;9.25;8.30;;;;;;;;;;4975681;28;20235;-69
2022/08/24 14:11:54;;;;;;;9.05;7.60;;;;;;;;;;4976784;28;20042;-70
2022/08/24 14:14:34;;;;;;;9.85;7.50;;;;;;;;;;4975504;28;20037;-70
2022/08/24 14:20:29;;;;;;;8.60;7.43;;;;;;;;;;4953034;28;20403;-71
2022/08/24 14:23:09;;;;;;;10.15;7.72;;;;;;;;;;4975162;28;20053;-70
2022/08/24 14:25:35;;;;;;;7.53;6.55;;;;;;;;;;4974789;28;20037;-69
2022/08/24 14:28:01;;;;;;;8.73;7.25;;;;;;;;;;4965334;28;20120;-70
2022/08/24 14:30:27;;;;;;;10.20;6.97;;;;;;;;;;4975124;28;20045;-71
2022/08/24 14:32:58;;;;;;;7.65;6.78;;;;;;;;;;4976609;28;20521;-69
2022/08/24 14:35:31;;;;;;;7.22;5.90;;;;;;;;;;4975005;28;20152;-72
2022/08/24 14:37:56;;;;;;;6.28;5.68;;;;;;;;;;4972671;28;20527;-71
2022/08/24 14:40:37;;;;;;;7.63;6.93;;;;;;;;;;4974596;28;20183;-72
2022/08/24 14:43:18;;;;;;;7.47;5.90;;;;;;;;;;4975310;28;20077;-71
2022/08/24 14:45:43;;;;;;;;;;;;;;;;;;4956935;28;20293;-70
2022/08/24 14:48:18;;;;;;;8.43;6.68;;;;;;;;;;4973884;28;19992;-71
2022/08/24 14:51:09;;;;;;;7.75;4.90;;;;;;;;;;4975713;28;20197;-71
2022/08/24 14:53:38;;;;;;;7.72;5.60;;;;;;;;;;4971528;28;20049;-72
2022/08/24 14:56:13;;;;;;;9.48;5.30;;;;;;;;;;4975188;28;20038;-71
2022/08/24 14:58:44;;;;;;;7.63;5.70;;;;;;;;;;4972795;28;20041;-71
2022/08/24 15:01:09;;;;;;;;;;;;;;;;;;4974467;28;20038;-70